sensor_id;sensor_type;location;lat;lon;timestamp;P1;durP1;ratioP1;P2;durP2;ratioP2
20505;SDS011;10411;48.148;7.704;2022-09-29T00:01:33;18.70;;;17.37;;
20505;SDS011;10411;48.148;7.704;2022-09-29T00:03:59;17.50;;;16.40;;
20505;SDS011;10411;48.148;7.704;2022-09-29T00:06:25;18.40;;;17.20;;
20505;SDS011;10411;48.148;7.704;2022-09-29T00:08:51;17.93;;;16.80;;
20505;SDS011;10411;48.148;7.704;2022-09-29T00:11:17;17.10;;;16.10;;
20505;SDS011;10411;48.148;7.704;2022-09-29T00:13:44;17.37;;;16.37;;
20505;SDS011;10411;48.148;7.704;2022-09-29T00:16:10;17.07;;;15.97;;
20505;SDS011;10411;48.148;7.704;2022-09-29T00:18:36;17.30;;;16.30;;
20505;SDS011;10411;48.148;7.704;2022-09-29T00:21:04;18.37;;;16.93;;
20505;SDS011;10411;48.148;7.704;2022-09-29T00:23:30;18.13;;;16.67;;
20505;SDS011;10411;48.148;7.704;2022-09-29T00:26:04;18.20;;;17.10;;
20505;SDS011;10411;48.148;7.704;2022-09-29T00:28:31;17.63;;;16.63;;
20505;SDS011;10411;48.148;7.704;2022-09-29T00:30:58;17.63;;;16.53;;
20505;SDS011;10411;48.148;7.704;2022-09-29T00:33:25;17.40;;;16.20;;
20505;SDS011;10411;48.148;7.704;2022-09-29T00:35:55;17.93;;;16.83;;
20505;SDS011;10411;48.148;7.704;2022-09-29T00:38:22;18.13;;;17.07;;
20505;SDS011;10411;48.148;7.704;2022-09-29T00:40:48;18.20;;;17.00;;
20505;SDS011;10411;48.148;7.704;2022-09-29T00:43:18;18.63;;;17.33;;
20505;SDS011;10411;48.148;7.704;2022-09-29T00:45:44;18.03;;;17.00;;
20505;SDS011;10411;48.148;7.704;2022-09-29T00:48:14;19.07;;;17.67;;
20505;SDS011;10411;48.148;7.704;2022-09-29T00:50:44;18.70;;;17.57;;
20505;SDS011;10411;48.148;7.704;2022-09-29T00:53:13;18.63;;;17.43;;
20505;SDS011;10411;48.148;7.704;2022-09-29T00:55:42;18.30;;;17.17;;
20505;SDS011;10411;48.148;7.704;2022-09-29T00:58:12;18.73;;;17.53;;
20505;SDS011;10411;48.148;7.704;2022-09-29T01:00:41;18.67;;;17.50;;
20505;SDS011;10411;48.148;7.704;2022-09-29T01:03:08;18.90;;;17.53;;
20505;SDS011;10411;48.148;7.704;2022-09-29T01:05:37;19.17;;;17.73;;
20505;SDS011;10411;48.148;7.704;2022-09-29T01:08:10;18.43;;;17.20;;
20505;SDS011;10411;48.148;7.704;2022-09-29T01:10:38;18.50;;;17.30;;
20505;SDS011;10411;48.148;7.704;2022-09-29T01:13:04;18.37;;;17.17;;
20505;SDS011;10411;48.148;7.704;2022-09-29T01:15:30;18.60;;;17.13;;
20505;SDS011;10411;48.148;7.704;2022-09-29T01:17:57;18.27;;;17.27;;
20505;SDS011;10411;48.148;7.704;2022-09-29T01:20:23;18.33;;;17.03;;
20505;SDS011;10411;48.148;7.704;2022-09-29T01:25:36;18.40;;;17.30;;
20505;SDS011;10411;48.148;7.704;2022-09-29T01:28:22;17.90;;;16.80;;
20505;SDS011;10411;48.148;7.704;2022-09-29T01:36:10;18.07;;;16.97;;
20505;SDS011;10411;48.148;7.704;2022-09-29T01:41:49;17.80;;;16.80;;
20505;SDS011;10411;48.148;7.704;2022-09-29T01:43:57;18.90;;;17.30;;
20505;SDS011;10411;48.148;7.704;2022-09-29T01:46:26;18.60;;;17.43;;
20505;SDS011;10411;48.148;7.704;2022-09-29T01:48:54;18.10;;;16.90;;
20505;SDS011;10411;48.148;7.704;2022-09-29T01:51:25;17.53;;;16.53;;
20505;SDS011;10411;48.148;7.704;2022-09-29T01:53:53;17.40;;;16.30;;
20505;SDS011;10411;48.148;7.704;2022-09-29T01:56:24;18.20;;;16.93;;
20505;SDS011;10411;48.148;7.704;2022-09-29T01:58:52;17.70;;;16.67;;
20505;SDS011;10411;48.148;7.704;2022-09-29T02:01:20;18.30;;;17.10;;
20505;SDS011;10411;48.148;7.704;2022-09-29T02:03:48;19.77;;;17.93;;
20505;SDS011;10411;48.148;7.704;2022-09-29T02:06:16;18.63;;;17.50;;
20505;SDS011;10411;48.148;7.704;2022-09-29T02:11:11;19.00;;;17.70;;
20505;SDS011;10411;48.148;7.704;2022-09-29T02:13:42;18.83;;;17.50;;
20505;SDS011;10411;48.148;7.704;2022-09-29T02:16:14;18.53;;;17.43;;
20505;SDS011;10411;48.148;7.704;2022-09-29T02:18:43;18.90;;;17.60;;
20505;SDS011;10411;48.148;7.704;2022-09-29T02:21:12;19.10;;;17.70;;
20505;SDS011;10411;48.148;7.704;2022-09-29T02:23:38;18.77;;;17.50;;
20505;SDS011;10411;48.148;7.704;2022-09-29T02:26:04;18.33;;;17.03;;
20505;SDS011;10411;48.148;7.704;2022-09-29T02:28:30;18.10;;;16.70;;
20505;SDS011;10411;48.148;7.704;2022-09-29T02:30:56;17.87;;;16.77;;
20505;SDS011;10411;48.148;7.704;2022-09-29T02:33:22;17.40;;;16.30;;
20505;SDS011;10411;48.148;7.704;2022-09-29T02:38:46;17.70;;;16.70;;
20505;SDS011;10411;48.148;7.704;2022-09-29T02:44:09;18.80;;;17.60;;
20505;SDS011;10411;48.148;7.704;2022-09-29T02:49:22;19.07;;;17.70;;
20505;SDS011;10411;48.148;7.704;2022-09-29T02:51:56;20.33;;;18.93;;
20505;SDS011;10411;48.148;7.704;2022-09-29T03:02:06;18.43;;;17.07;;
20505;SDS011;10411;48.148;7.704;2022-09-29T03:04:32;18.30;;;17.10;;
20505;SDS011;10411;48.148;7.704;2022-09-29T03:06:58;17.60;;;16.50;;
20505;SDS011;10411;48.148;7.704;2022-09-29T03:09:24;17.80;;;16.70;;
20505;SDS011;10411;48.148;7.704;2022-09-29T03:11:50;18.50;;;17.20;;
20505;SDS011;10411;48.148;7.704;2022-09-29T03:14:15;17.83;;;16.77;;
20505;SDS011;10411;48.148;7.704;2022-09-29T03:16:41;18.30;;;17.07;;
20505;SDS011;10411;48.148;7.704;2022-09-29T03:19:07;18.17;;;16.77;;
20505;SDS011;10411;48.148;7.704;2022-09-29T03:21:34;19.13;;;17.57;;
20505;SDS011;10411;48.148;7.704;2022-09-29T03:24:00;18.80;;;17.50;;
20505;SDS011;10411;48.148;7.704;2022-09-29T03:26:26;18.13;;;17.13;;
20505;SDS011;10411;48.148;7.704;2022-09-29T03:28:52;17.80;;;16.63;;
20505;SDS011;10411;48.148;7.704;2022-09-29T03:31:18;18.87;;;17.33;;
20505;SDS011;10411;48.148;7.704;2022-09-29T03:33:44;19.47;;;18.07;;
20505;SDS011;10411;48.148;7.704;2022-09-29T03:36:10;19.50;;;18.23;;
20505;SDS011;10411;48.148;7.704;2022-09-29T03:38:36;20.80;;;19.20;;
20505;SDS011;10411;48.148;7.704;2022-09-29T03:41:03;21.53;;;19.80;;
20505;SDS011;10411;48.148;7.704;2022-09-29T03:43:29;20.33;;;18.60;;
20505;SDS011;10411;48.148;7.704;2022-09-29T03:45:55;18.47;;;17.37;;
20505;SDS011;10411;48.148;7.704;2022-09-29T03:48:22;19.00;;;17.80;;
20505;SDS011;10411;48.148;7.704;2022-09-29T03:50:49;19.27;;;17.93;;
20505;SDS011;10411;48.148;7.704;2022-09-29T03:53:15;19.27;;;17.87;;
20505;SDS011;10411;48.148;7.704;2022-09-29T03:55:45;19.57;;;18.33;;
20505;SDS011;10411;48.148;7.704;2022-09-29T03:58:11;18.60;;;17.60;;
20505;SDS011;10411;48.148;7.704;2022-09-29T04:00:37;20.00;;;18.53;;
20505;SDS011;10411;48.148;7.704;2022-09-29T04:03:03;18.70;;;17.70;;
20505;SDS011;10411;48.148;7.704;2022-09-29T04:05:29;19.50;;;18.30;;
20505;SDS011;10411;48.148;7.704;2022-09-29T04:07:55;19.30;;;17.80;;
20505;SDS011;10411;48.148;7.704;2022-09-29T04:10:21;19.07;;;17.63;;
20505;SDS011;10411;48.148;7.704;2022-09-29T04:12:47;19.90;;;18.50;;
20505;SDS011;10411;48.148;7.704;2022-09-29T04:15:13;20.50;;;18.90;;
20505;SDS011;10411;48.148;7.704;2022-09-29T04:17:39;21.90;;;20.30;;
20505;SDS011;10411;48.148;7.704;2022-09-29T04:20:05;20.40;;;19.10;;
20505;SDS011;10411;48.148;7.704;2022-09-29T04:22:32;22.03;;;20.30;;
20505;SDS011;10411;48.148;7.704;2022-09-29T04:24:58;22.53;;;20.87;;
20505;SDS011;10411;48.148;7.704;2022-09-29T04:27:23;22.40;;;20.80;;
20505;SDS011;10411;48.148;7.704;2022-09-29T04:29:49;21.47;;;20.07;;
20505;SDS011;10411;48.148;7.704;2022-09-29T04:32:15;22.00;;;20.30;;
20505;SDS011;10411;48.148;7.704;2022-09-29T04:34:41;23.07;;;21.07;;
20505;SDS011;10411;48.148;7.704;2022-09-29T04:37:08;22.50;;;20.90;;
20505;SDS011;10411;48.148;7.704;2022-09-29T04:39:37;24.03;;;22.23;;
20505;SDS011;10411;48.148;7.704;2022-09-29T04:42:03;22.20;;;20.57;;
20505;SDS011;10411;48.148;7.704;2022-09-29T04:44:29;22.47;;;20.80;;
20505;SDS011;10411;48.148;7.704;2022-09-29T04:46:55;22.40;;;20.90;;
20505;SDS011;10411;48.148;7.704;2022-09-29T04:49:21;21.63;;;20.23;;
20505;SDS011;10411;48.148;7.704;2022-09-29T04:51:47;21.60;;;20.00;;
20505;SDS011;10411;48.148;7.704;2022-09-29T04:54:13;21.30;;;19.90;;
20505;SDS011;10411;48.148;7.704;2022-09-29T04:56:39;20.77;;;19.47;;
20505;SDS011;10411;48.148;7.704;2022-09-29T04:59:05;20.87;;;19.50;;
20505;SDS011;10411;48.148;7.704;2022-09-29T05:13:09;22.60;;;20.80;;
20505;SDS011;10411;48.148;7.704;2022-09-29T05:15:35;22.77;;;21.20;;
20505;SDS011;10411;48.148;7.704;2022-09-29T05:18:01;23.37;;;21.57;;
20505;SDS011;10411;48.148;7.704;2022-09-29T05:20:27;23.77;;;21.63;;
20505;SDS011;10411;48.148;7.704;2022-09-29T05:22:53;23.33;;;21.10;;
20505;SDS011;10411;48.148;7.704;2022-09-29T05:25:19;22.70;;;21.00;;
20505;SDS011;10411;48.148;7.704;2022-09-29T05:27:45;25.77;;;23.67;;
20505;SDS011;10411;48.148;7.704;2022-09-29T05:30:11;27.10;;;24.90;;
20505;SDS011;10411;48.148;7.704;2022-09-29T05:32:37;24.80;;;22.80;;
20505;SDS011;10411;48.148;7.704;2022-09-29T05:35:03;24.30;;;22.40;;
20505;SDS011;10411;48.148;7.704;2022-09-29T05:37:29;24.27;;;22.27;;
20505;SDS011;10411;48.148;7.704;2022-09-29T05:39:55;23.10;;;21.40;;
20505;SDS011;10411;48.148;7.704;2022-09-29T05:42:27;23.50;;;21.60;;
20505;SDS011;10411;48.148;7.704;2022-09-29T05:44:53;23.30;;;21.40;;
20505;SDS011;10411;48.148;7.704;2022-09-29T05:47:19;22.10;;;20.40;;
20505;SDS011;10411;48.148;7.704;2022-09-29T05:49:46;22.90;;;21.30;;
20505;SDS011;10411;48.148;7.704;2022-09-29T05:52:12;23.10;;;21.17;;
20505;SDS011;10411;48.148;7.704;2022-09-29T05:54:38;23.80;;;22.00;;
20505;SDS011;10411;48.148;7.704;2022-09-29T05:57:04;22.87;;;21.17;;
20505;SDS011;10411;48.148;7.704;2022-09-29T05:59:30;23.60;;;21.80;;
20505;SDS011;10411;48.148;7.704;2022-09-29T06:01:56;24.43;;;22.17;;
20505;SDS011;10411;48.148;7.704;2022-09-29T06:04:22;24.60;;;22.70;;
20505;SDS011;10411;48.148;7.704;2022-09-29T06:06:48;24.83;;;22.67;;
20505;SDS011;10411;48.148;7.704;2022-09-29T06:09:14;25.23;;;23.00;;
20505;SDS011;10411;48.148;7.704;2022-09-29T06:11:40;24.73;;;22.93;;
20505;SDS011;10411;48.148;7.704;2022-09-29T06:14:06;22.93;;;21.23;;
20505;SDS011;10411;48.148;7.704;2022-09-29T06:16:32;23.13;;;21.43;;
20505;SDS011;10411;48.148;7.704;2022-09-29T06:18:59;22.87;;;21.37;;
20505;SDS011;10411;48.148;7.704;2022-09-29T06:21:26;23.33;;;21.63;;
20505;SDS011;10411;48.148;7.704;2022-09-29T06:23:52;23.27;;;21.47;;
20505;SDS011;10411;48.148;7.704;2022-09-29T06:26:19;25.70;;;23.10;;
20505;SDS011;10411;48.148;7.704;2022-09-29T06:28:45;23.83;;;22.07;;
20505;SDS011;10411;48.148;7.704;2022-09-29T06:31:13;24.37;;;22.57;;
20505;SDS011;10411;48.148;7.704;2022-09-29T06:33:40;29.63;;;26.73;;
20505;SDS011;10411;48.148;7.704;2022-09-29T06:38:55;28.93;;;25.87;;
20505;SDS011;10411;48.148;7.704;2022-09-29T06:41:22;31.40;;;28.13;;
20505;SDS011;10411;48.148;7.704;2022-09-29T06:43:47;27.33;;;24.70;;
20505;SDS011;10411;48.148;7.704;2022-09-29T06:46:13;24.33;;;22.37;;
20505;SDS011;10411;48.148;7.704;2022-09-29T06:48:44;29.17;;;26.77;;
20505;SDS011;10411;48.148;7.704;2022-09-29T06:51:14;27.10;;;24.63;;
20505;SDS011;10411;48.148;7.704;2022-09-29T06:53:46;33.20;;;30.03;;
20505;SDS011;10411;48.148;7.704;2022-09-29T06:56:16;33.77;;;30.50;;
20505;SDS011;10411;48.148;7.704;2022-09-29T06:58:43;27.43;;;24.90;;
20505;SDS011;10411;48.148;7.704;2022-09-29T07:01:09;24.87;;;22.77;;
20505;SDS011;10411;48.148;7.704;2022-09-29T07:03:35;24.50;;;22.63;;
20505;SDS011;10411;48.148;7.704;2022-09-29T07:06:02;25.47;;;23.20;;
20505;SDS011;10411;48.148;7.704;2022-09-29T07:08:28;24.33;;;22.10;;
20505;SDS011;10411;48.148;7.704;2022-09-29T07:10:55;24.93;;;22.60;;
20505;SDS011;10411;48.148;7.704;2022-09-29T07:13:21;24.47;;;22.30;;
20505;SDS011;10411;48.148;7.704;2022-09-29T07:15:47;24.03;;;21.93;;
20505;SDS011;10411;48.148;7.704;2022-09-29T07:18:13;23.00;;;21.23;;
20505;SDS011;10411;48.148;7.704;2022-09-29T07:20:39;23.80;;;21.93;;
20505;SDS011;10411;48.148;7.704;2022-09-29T07:23:06;23.07;;;21.17;;
20505;SDS011;10411;48.148;7.704;2022-09-29T07:25:33;24.03;;;22.03;;
20505;SDS011;10411;48.148;7.704;2022-09-29T07:27:59;24.37;;;21.97;;
20505;SDS011;10411;48.148;7.704;2022-09-29T07:30:25;24.10;;;21.93;;
20505;SDS011;10411;48.148;7.704;2022-09-29T07:32:52;23.83;;;21.83;;
20505;SDS011;10411;48.148;7.704;2022-09-29T07:35:19;23.33;;;21.67;;
20505;SDS011;10411;48.148;7.704;2022-09-29T07:37:51;24.87;;;22.87;;
20505;SDS011;10411;48.148;7.704;2022-09-29T07:40:18;24.53;;;22.83;;
20505;SDS011;10411;48.148;7.704;2022-09-29T07:42:45;23.77;;;22.03;;
20505;SDS011;10411;48.148;7.704;2022-09-29T07:45:11;24.73;;;22.63;;
20505;SDS011;10411;48.148;7.704;2022-09-29T07:47:37;24.20;;;22.47;;
20505;SDS011;10411;48.148;7.704;2022-09-29T07:50:03;23.80;;;22.00;;
20505;SDS011;10411;48.148;7.704;2022-09-29T07:52:30;23.57;;;21.83;;
20505;SDS011;10411;48.148;7.704;2022-09-29T07:54:55;24.37;;;22.30;;
20505;SDS011;10411;48.148;7.704;2022-09-29T07:57:21;25.10;;;23.23;;
20505;SDS011;10411;48.148;7.704;2022-09-29T07:59:47;25.07;;;22.87;;
20505;SDS011;10411;48.148;7.704;2022-09-29T08:02:13;24.37;;;22.43;;
20505;SDS011;10411;48.148;7.704;2022-09-29T08:04:41;25.77;;;23.50;;
20505;SDS011;10411;48.148;7.704;2022-09-29T08:07:08;25.63;;;23.33;;
20505;SDS011;10411;48.148;7.704;2022-09-29T08:09:34;25.37;;;23.37;;
20505;SDS011;10411;48.148;7.704;2022-09-29T08:12:00;25.57;;;23.20;;
20505;SDS011;10411;48.148;7.704;2022-09-29T08:14:26;24.43;;;22.43;;
20505;SDS011;10411;48.148;7.704;2022-09-29T08:16:52;25.10;;;23.30;;
20505;SDS011;10411;48.148;7.704;2022-09-29T08:19:18;24.77;;;22.87;;
20505;SDS011;10411;48.148;7.704;2022-09-29T08:21:44;24.40;;;22.17;;
20505;SDS011;10411;48.148;7.704;2022-09-29T08:24:13;24.03;;;22.33;;
20505;SDS011;10411;48.148;7.704;2022-09-29T08:26:39;24.57;;;22.70;;
20505;SDS011;10411;48.148;7.704;2022-09-29T08:29:05;25.10;;;23.10;;
20505;SDS011;10411;48.148;7.704;2022-09-29T08:31:31;25.93;;;23.80;;
20505;SDS011;10411;48.148;7.704;2022-09-29T08:33:57;24.93;;;23.13;;
20505;SDS011;10411;48.148;7.704;2022-09-29T08:36:24;26.10;;;23.90;;
20505;SDS011;10411;48.148;7.704;2022-09-29T08:38:51;26.50;;;24.20;;
20505;SDS011;10411;48.148;7.704;2022-09-29T08:43:49;30.67;;;27.93;;
20505;SDS011;10411;48.148;7.704;2022-09-29T08:46:25;28.90;;;26.43;;
20505;SDS011;10411;48.148;7.704;2022-09-29T08:48:52;27.87;;;25.50;;
20505;SDS011;10411;48.148;7.704;2022-09-29T08:53:48;28.77;;;26.47;;
20505;SDS011;10411;48.148;7.704;2022-09-29T08:56:15;31.80;;;28.80;;
20505;SDS011;10411;48.148;7.704;2022-09-29T08:58:42;28.43;;;25.97;;
20505;SDS011;10411;48.148;7.704;2022-09-29T09:01:18;26.87;;;24.53;;
20505;SDS011;10411;48.148;7.704;2022-09-29T09:04:01;28.20;;;25.90;;
20505;SDS011;10411;48.148;7.704;2022-09-29T09:14:18;23.77;;;21.93;;
20505;SDS011;10411;48.148;7.704;2022-09-29T09:19:34;23.43;;;21.77;;
20505;SDS011;10411;48.148;7.704;2022-09-29T09:22:20;23.63;;;22.03;;
20505;SDS011;10411;48.148;7.704;2022-09-29T09:24:48;25.70;;;23.43;;
20505;SDS011;10411;48.148;7.704;2022-09-29T09:27:19;23.37;;;21.63;;
20505;SDS011;10411;48.148;7.704;2022-09-29T09:29:47;22.27;;;20.73;;
20505;SDS011;10411;48.148;7.704;2022-09-29T09:32:16;28.67;;;25.73;;
20505;SDS011;10411;48.148;7.704;2022-09-29T09:37:19;22.33;;;20.73;;
20505;SDS011;10411;48.148;7.704;2022-09-29T09:39:47;23.50;;;21.70;;
20505;SDS011;10411;48.148;7.704;2022-09-29T09:42:20;23.23;;;21.50;;
20505;SDS011;10411;48.148;7.704;2022-09-29T09:44:48;22.57;;;21.07;;
20505;SDS011;10411;48.148;7.704;2022-09-29T09:47:39;23.17;;;21.47;;
20505;SDS011;10411;48.148;7.704;2022-09-29T09:50:17;22.30;;;20.60;;
20505;SDS011;10411;48.148;7.704;2022-09-29T09:55:13;26.93;;;24.73;;
20505;SDS011;10411;48.148;7.704;2022-09-29T10:00:29;21.20;;;19.70;;
20505;SDS011;10411;48.148;7.704;2022-09-29T10:02:57;20.33;;;19.03;;
20505;SDS011;10411;48.148;7.704;2022-09-29T10:05:33;21.23;;;19.70;;
20505;SDS011;10411;48.148;7.704;2022-09-29T10:08:02;21.00;;;19.60;;
20505;SDS011;10411;48.148;7.704;2022-09-29T10:10:28;20.80;;;19.40;;
20505;SDS011;10411;48.148;7.704;2022-09-29T10:12:57;22.20;;;20.30;;
20505;SDS011;10411;48.148;7.704;2022-09-29T10:15:49;20.37;;;18.97;;
20505;SDS011;10411;48.148;7.704;2022-09-29T10:18:14;21.50;;;20.10;;
20505;SDS011;10411;48.148;7.704;2022-09-29T10:20:42;21.83;;;20.23;;
20505;SDS011;10411;48.148;7.704;2022-09-29T10:23:18;20.83;;;19.53;;
20505;SDS011;10411;48.148;7.704;2022-09-29T10:26:07;22.03;;;20.73;;
20505;SDS011;10411;48.148;7.704;2022-09-29T10:28:47;21.37;;;20.07;;
20505;SDS011;10411;48.148;7.704;2022-09-29T10:31:16;21.03;;;19.63;;
20505;SDS011;10411;48.148;7.704;2022-09-29T10:33:46;22.50;;;21.03;;
20505;SDS011;10411;48.148;7.704;2022-09-29T10:36:13;22.40;;;20.57;;
20505;SDS011;10411;48.148;7.704;2022-09-29T10:38:44;23.73;;;21.87;;
20505;SDS011;10411;48.148;7.704;2022-09-29T10:41:11;21.83;;;20.30;;
20505;SDS011;10411;48.148;7.704;2022-09-29T10:43:45;21.93;;;20.40;;
20505;SDS011;10411;48.148;7.704;2022-09-29T10:49:09;22.47;;;20.77;;
20505;SDS011;10411;48.148;7.704;2022-09-29T10:51:35;21.87;;;20.13;;
20505;SDS011;10411;48.148;7.704;2022-09-29T10:54:08;20.10;;;18.87;;
20505;SDS011;10411;48.148;7.704;2022-09-29T10:56:34;19.63;;;18.43;;
20505;SDS011;10411;48.148;7.704;2022-09-29T10:59:03;19.83;;;18.53;;
20505;SDS011;10411;48.148;7.704;2022-09-29T11:01:43;20.23;;;19.03;;
20505;SDS011;10411;48.148;7.704;2022-09-29T11:04:16;20.63;;;19.43;;
20505;SDS011;10411;48.148;7.704;2022-09-29T11:06:43;20.20;;;18.90;;
20505;SDS011;10411;48.148;7.704;2022-09-29T11:11:51;19.40;;;18.30;;
20505;SDS011;10411;48.148;7.704;2022-09-29T11:16:55;19.90;;;18.50;;
20505;SDS011;10411;48.148;7.704;2022-09-29T11:19:24;19.20;;;18.10;;
20505;SDS011;10411;48.148;7.704;2022-09-29T11:29:49;19.07;;;17.93;;
20505;SDS011;10411;48.148;7.704;2022-09-29T11:32:33;18.93;;;17.83;;
20505;SDS011;10411;48.148;7.704;2022-09-29T11:37:39;18.77;;;17.67;;
20505;SDS011;10411;48.148;7.704;2022-09-29T11:40:17;20.00;;;18.70;;
20505;SDS011;10411;48.148;7.704;2022-09-29T11:43:14;19.47;;;18.27;;
20505;SDS011;10411;48.148;7.704;2022-09-29T11:45:37;20.57;;;19.37;;
20505;SDS011;10411;48.148;7.704;2022-09-29T11:48:36;21.30;;;19.90;;
20505;SDS011;10411;48.148;7.704;2022-09-29T11:56:00;20.77;;;19.47;;
20505;SDS011;10411;48.148;7.704;2022-09-29T11:58:50;19.93;;;18.73;;
20505;SDS011;10411;48.148;7.704;2022-09-29T12:14:37;19.37;;;18.17;;
20505;SDS011;10411;48.148;7.704;2022-09-29T12:17:08;19.90;;;18.50;;
20505;SDS011;10411;48.148;7.704;2022-09-29T12:19:36;19.13;;;18.03;;
20505;SDS011;10411;48.148;7.704;2022-09-29T12:22:14;19.83;;;18.50;;
20505;SDS011;10411;48.148;7.704;2022-09-29T12:24:44;18.80;;;17.70;;
20505;SDS011;10411;48.148;7.704;2022-09-29T12:30:05;19.13;;;17.93;;
20505;SDS011;10411;48.148;7.704;2022-09-29T12:32:38;19.40;;;18.00;;
20505;SDS011;10411;48.148;7.704;2022-09-29T12:35:14;17.40;;;16.40;;
20505;SDS011;10411;48.148;7.704;2022-09-29T12:40:45;17.80;;;16.80;;
20505;SDS011;10411;48.148;7.704;2022-09-29T12:43:18;21.67;;;20.07;;
20505;SDS011;10411;48.148;7.704;2022-09-29T12:51:27;17.80;;;16.70;;
20505;SDS011;10411;48.148;7.704;2022-09-29T12:54:07;17.30;;;16.40;;
20505;SDS011;10411;48.148;7.704;2022-09-29T12:56:38;17.40;;;16.30;;
20505;SDS011;10411;48.148;7.704;2022-09-29T13:10:34;18.00;;;16.80;;
20505;SDS011;10411;48.148;7.704;2022-09-29T13:21:37;20.97;;;19.67;;
20505;SDS011;10411;48.148;7.704;2022-09-29T13:35:52;18.73;;;17.63;;
20505;SDS011;10411;48.148;7.704;2022-09-29T13:38:19;19.97;;;18.53;;
20505;SDS011;10411;48.148;7.704;2022-09-29T13:46:36;19.33;;;18.23;;
20505;SDS011;10411;48.148;7.704;2022-09-29T13:49:20;19.77;;;18.37;;
20505;SDS011;10411;48.148;7.704;2022-09-29T13:51:59;19.60;;;18.40;;
20505;SDS011;10411;48.148;7.704;2022-09-29T13:57:49;19.83;;;18.57;;
20505;SDS011;10411;48.148;7.704;2022-09-29T14:00:28;19.67;;;18.47;;
20505;SDS011;10411;48.148;7.704;2022-09-29T14:03:16;19.87;;;18.50;;
20505;SDS011;10411;48.148;7.704;2022-09-29T14:08:36;24.77;;;22.97;;
20505;SDS011;10411;48.148;7.704;2022-09-29T14:11:14;23.83;;;22.13;;
20505;SDS011;10411;48.148;7.704;2022-09-29T14:13:56;21.70;;;20.10;;
20505;SDS011;10411;48.148;7.704;2022-09-29T14:22:00;20.70;;;19.40;;
20505;SDS011;10411;48.148;7.704;2022-09-29T14:30:12;20.00;;;18.60;;
20505;SDS011;10411;48.148;7.704;2022-09-29T14:32:58;19.13;;;17.93;;
20505;SDS011;10411;48.148;7.704;2022-09-29T14:35:45;19.03;;;17.93;;
20505;SDS011;10411;48.148;7.704;2022-09-29T14:43:41;20.10;;;18.80;;
20505;SDS011;10411;48.148;7.704;2022-09-29T15:03:32;20.50;;;19.20;;
20505;SDS011;10411;48.148;7.704;2022-09-29T15:11:51;19.40;;;18.20;;
20505;SDS011;10411;48.148;7.704;2022-09-29T15:14:31;19.30;;;18.00;;
20505;SDS011;10411;48.148;7.704;2022-09-29T15:20:12;17.27;;;16.27;;
20505;SDS011;10411;48.148;7.704;2022-09-29T15:28:31;16.50;;;15.53;;
20505;SDS011;10411;48.148;7.704;2022-09-29T15:31:04;16.60;;;15.70;;
20505;SDS011;10411;48.148;7.704;2022-09-29T15:33:33;17.00;;;15.57;;
20505;SDS011;10411;48.148;7.704;2022-09-29T15:36:16;16.50;;;15.70;;
20505;SDS011;10411;48.148;7.704;2022-09-29T15:38:47;17.40;;;16.50;;
20505;SDS011;10411;48.148;7.704;2022-09-29T15:41:16;16.40;;;15.50;;
20505;SDS011;10411;48.148;7.704;2022-09-29T15:46:21;17.50;;;16.40;;
20505;SDS011;10411;48.148;7.704;2022-09-29T15:49:21;17.60;;;16.50;;
20505;SDS011;10411;48.148;7.704;2022-09-29T17:21:08;18.70;;;17.60;;
20505;SDS011;10411;48.148;7.704;2022-09-29T17:23:53;18.40;;;17.07;;
20505;SDS011;10411;48.148;7.704;2022-09-29T17:32:33;19.83;;;18.57;;
20505;SDS011;10411;48.148;7.704;2022-09-29T17:35:11;19.67;;;18.47;;
20505;SDS011;10411;48.148;7.704;2022-09-29T17:37:43;20.00;;;18.60;;
20505;SDS011;10411;48.148;7.704;2022-09-29T17:43:00;19.63;;;18.27;;
20505;SDS011;10411;48.148;7.704;2022-09-29T17:52:08;20.83;;;19.37;;
20505;SDS011;10411;48.148;7.704;2022-09-29T17:54:51;20.43;;;19.03;;
20505;SDS011;10411;48.148;7.704;2022-09-29T17:57:36;20.03;;;18.50;;
20505;SDS011;10411;48.148;7.704;2022-09-29T18:00:19;19.80;;;18.53;;
20505;SDS011;10411;48.148;7.704;2022-09-29T18:02:52;19.47;;;18.33;;
20505;SDS011;10411;48.148;7.704;2022-09-29T18:05:27;20.20;;;18.70;;
20505;SDS011;10411;48.148;7.704;2022-09-29T18:08:00;20.33;;;18.97;;
20505;SDS011;10411;48.148;7.704;2022-09-29T18:10:38;19.83;;;18.57;;
20505;SDS011;10411;48.148;7.704;2022-09-29T18:13:08;21.53;;;20.20;;
20505;SDS011;10411;48.148;7.704;2022-09-29T18:15:40;20.50;;;19.13;;
20505;SDS011;10411;48.148;7.704;2022-09-29T18:18:10;20.40;;;18.93;;
20505;SDS011;10411;48.148;7.704;2022-09-29T18:20:56;23.50;;;21.70;;
20505;SDS011;10411;48.148;7.704;2022-09-29T18:23:22;28.67;;;25.00;;
20505;SDS011;10411;48.148;7.704;2022-09-29T18:25:49;29.30;;;26.30;;
20505;SDS011;10411;48.148;7.704;2022-09-29T18:28:15;22.67;;;20.60;;
20505;SDS011;10411;48.148;7.704;2022-09-29T18:30:42;21.63;;;20.07;;
20505;SDS011;10411;48.148;7.704;2022-09-29T18:33:10;20.43;;;19.03;;
20505;SDS011;10411;48.148;7.704;2022-09-29T18:35:38;19.67;;;18.47;;
20505;SDS011;10411;48.148;7.704;2022-09-29T18:38:05;22.67;;;21.03;;
20505;SDS011;10411;48.148;7.704;2022-09-29T18:40:31;21.70;;;20.03;;
20505;SDS011;10411;48.148;7.704;2022-09-29T18:42:57;21.70;;;20.30;;
20505;SDS011;10411;48.148;7.704;2022-09-29T18:45:25;21.83;;;20.17;;
20505;SDS011;10411;48.148;7.704;2022-09-29T18:47:54;21.33;;;19.50;;
20505;SDS011;10411;48.148;7.704;2022-09-29T18:50:27;20.83;;;19.40;;
20505;SDS011;10411;48.148;7.704;2022-09-29T18:52:54;20.40;;;19.10;;
20505;SDS011;10411;48.148;7.704;2022-09-29T18:55:22;20.17;;;18.70;;
20505;SDS011;10411;48.148;7.704;2022-09-29T18:57:49;20.23;;;18.77;;
20505;SDS011;10411;48.148;7.704;2022-09-29T19:00:16;20.70;;;19.40;;
20505;SDS011;10411;48.148;7.704;2022-09-29T19:02:44;22.53;;;20.93;;
20505;SDS011;10411;48.148;7.704;2022-09-29T19:05:11;21.60;;;19.90;;
20505;SDS011;10411;48.148;7.704;2022-09-29T19:07:40;21.70;;;20.20;;
20505;SDS011;10411;48.148;7.704;2022-09-29T19:10:06;22.07;;;20.47;;
20505;SDS011;10411;48.148;7.704;2022-09-29T19:12:33;21.37;;;20.03;;
20505;SDS011;10411;48.148;7.704;2022-09-29T19:14:59;26.77;;;24.47;;
20505;SDS011;10411;48.148;7.704;2022-09-29T19:17:25;25.43;;;23.43;;
20505;SDS011;10411;48.148;7.704;2022-09-29T19:19:52;23.30;;;21.60;;
20505;SDS011;10411;48.148;7.704;2022-09-29T19:22:18;21.90;;;20.37;;
20505;SDS011;10411;48.148;7.704;2022-09-29T19:24:44;24.07;;;22.33;;
20505;SDS011;10411;48.148;7.704;2022-09-29T19:27:11;20.87;;;19.37;;
20505;SDS011;10411;48.148;7.704;2022-09-29T19:29:37;21.07;;;19.77;;
20505;SDS011;10411;48.148;7.704;2022-09-29T19:32:03;22.10;;;20.57;;
20505;SDS011;10411;48.148;7.704;2022-09-29T19:34:30;21.70;;;19.93;;
20505;SDS011;10411;48.148;7.704;2022-09-29T19:36:56;22.77;;;20.70;;
20505;SDS011;10411;48.148;7.704;2022-09-29T19:39:22;23.87;;;21.70;;
20505;SDS011;10411;48.148;7.704;2022-09-29T19:41:50;22.93;;;21.33;;
20505;SDS011;10411;48.148;7.704;2022-09-29T19:44:16;22.37;;;20.87;;
20505;SDS011;10411;48.148;7.704;2022-09-29T19:46:44;22.50;;;20.73;;
20505;SDS011;10411;48.148;7.704;2022-09-29T19:49:10;23.67;;;21.97;;